RKSS/GMP METAR and TAF weather

Enter ICAO airport designator
Station Type Date Time Source
RKSS METAR 2020/04/05 11:00 UTC NOAA

RKSS 051100Z 21005KT CAVOK 08/00 Q1021 NOSIG


Station Type Date Time Source
RKSS Decoded METAR 2020/04/05 11:00 UTC NOAA

Seoul / Kimp'O International Airport, Korea, South (RKSS) 37-33N 126-48E 18M
Apr 05, 2020 - 07:00 AM EDT / 2020.04.05 1100 UTC
Wind: from the SSW (210 degrees) at 6 MPH (5 KT):0
Visibility: greater than 7 mile(s):0
Temperature: 46 F (8 C)
Dew Point: 32 F (0 C)
Relative Humidity: 56%
Pressure (altimeter): 30.15 in. Hg (1021 hPa)
ob: RKSS 051100Z 21005KT CAVOK 08/00 Q1021 NOSIG
cycle: 11

Station Type Date Time Source
RKSS TAF 2020/04/05 12:48 UTC NOAA

TAF TAF RKSS 051100Z 0512/0618 31007KT CAVOK TN01/0521Z TX16/0606Z
BECMG 0518/0519 06005KT
BECMG 0601/0602 26009KT
BECMG 0614/0615 20005KT 6000 NSC
BECMG 0616/0617 4200 BR FEW010 SCT030

Example: see airport list